sensor_id;sensor_type;location;lat;lon;timestamp;pressure;altitude;pressure_sealevel;temperature;humidity
77366;BME280;66430;50.182;11.704;2023-08-31T00:01:33;93969.83;;;16.62;38.90
77366;BME280;66430;50.182;11.704;2023-08-31T00:03:59;93971.46;;;16.60;38.76
77366;BME280;66430;50.182;11.704;2023-08-31T00:06:26;93972.61;;;16.47;39.09
77366;BME280;66430;50.182;11.704;2023-08-31T00:08:51;93976.93;;;16.40;39.06
77366;BME280;66430;50.182;11.704;2023-08-31T00:11:15;93980.73;;;16.41;39.03
77366;BME280;66430;50.182;11.704;2023-08-31T00:13:40;93979.71;;;16.05;39.61
77366;BME280;66430;50.182;11.704;2023-08-31T00:16:06;93973.95;;;16.33;39.37
77366;BME280;66430;50.182;11.704;2023-08-31T00:18:31;93972.44;;;16.14;39.49
77366;BME280;66430;50.182;11.704;2023-08-31T00:20:56;93960.97;;;16.88;39.31
77366;BME280;66430;50.182;11.704;2023-08-31T00:23:22;93955.19;;;16.49;39.25
77366;BME280;66430;50.182;11.704;2023-08-31T00:25:48;93951.26;;;16.40;39.49
77366;BME280;66430;50.182;11.704;2023-08-31T00:28:13;93954.54;;;15.89;40.50
77366;BME280;66430;50.182;11.704;2023-08-31T00:30:38;93961.32;;;15.88;40.45
77366;BME280;66430;50.182;11.704;2023-08-31T00:33:04;93964.06;;;16.07;40.32
77366;BME280;66430;50.182;11.704;2023-08-31T00:35:29;93966.77;;;16.36;40.41
77366;BME280;66430;50.182;11.704;2023-08-31T00:37:55;93961.00;;;16.57;40.10
77366;BME280;66430;50.182;11.704;2023-08-31T00:40:20;93950.33;;;16.26;40.71
77366;BME280;66430;50.182;11.704;2023-08-31T00:42:45;93951.96;;;16.54;40.79
77366;BME280;66430;50.182;11.704;2023-08-31T00:45:12;93960.80;;;16.21;40.39
77366;BME280;66430;50.182;11.704;2023-08-31T00:47:36;93963.69;;;16.30;40.84
77366;BME280;66430;50.182;11.704;2023-08-31T00:50:02;93970.32;;;16.65;40.51
77366;BME280;66430;50.182;11.704;2023-08-31T00:52:27;93970.37;;;16.31;40.35
77366;BME280;66430;50.182;11.704;2023-08-31T00:54:53;93973.68;;;16.37;40.48
77366;BME280;66430;50.182;11.704;2023-08-31T00:57:18;93968.71;;;16.14;40.25
77366;BME280;66430;50.182;11.704;2023-08-31T00:59:43;93966.43;;;16.53;40.29
77366;BME280;66430;50.182;11.704;2023-08-31T01:02:14;93958.86;;;16.12;40.11
77366;BME280;66430;50.182;11.704;2023-08-31T01:04:41;93953.07;;;16.42;39.92
77366;BME280;66430;50.182;11.704;2023-08-31T01:07:04;93953.96;;;16.49;39.62
77366;BME280;66430;50.182;11.704;2023-08-31T01:09:33;93957.67;;;16.65;39.53
77366;BME280;66430;50.182;11.704;2023-08-31T01:11:57;93961.67;;;15.99;39.75
77366;BME280;66430;50.182;11.704;2023-08-31T01:14:17;93958.77;;;16.02;39.53
77366;BME280;66430;50.182;11.704;2023-08-31T01:16:42;93963.99;;;16.30;39.43
77366;BME280;66430;50.182;11.704;2023-08-31T01:19:15;93968.02;;;15.81;39.50
77366;BME280;66430;50.182;11.704;2023-08-31T01:21:36;93971.76;;;16.27;39.51
77366;BME280;66430;50.182;11.704;2023-08-31T01:23:58;93968.95;;;15.99;39.64
77366;BME280;66430;50.182;11.704;2023-08-31T01:26:24;93968.09;;;15.83;39.90
77366;BME280;66430;50.182;11.704;2023-08-31T01:28:49;93969.51;;;15.91;40.00
77366;BME280;66430;50.182;11.704;2023-08-31T01:31:14;93972.33;;;15.99;39.93
77366;BME280;66430;50.182;11.704;2023-08-31T01:33:39;93973.79;;;15.83;40.33
77366;BME280;66430;50.182;11.704;2023-08-31T01:36:15;93980.79;;;15.65;40.87
77366;BME280;66430;50.182;11.704;2023-08-31T01:38:32;93987.59;;;15.68;41.03
77366;BME280;66430;50.182;11.704;2023-08-31T01:41:02;93985.73;;;15.92;40.59
77366;BME280;66430;50.182;11.704;2023-08-31T01:43:21;93988.52;;;15.87;40.61
77366;BME280;66430;50.182;11.704;2023-08-31T01:45:52;93988.10;;;15.87;40.80
77366;BME280;66430;50.182;11.704;2023-08-31T01:48:14;93993.68;;;15.47;41.15
77366;BME280;66430;50.182;11.704;2023-08-31T01:50:37;93994.15;;;15.91;40.85
77366;BME280;66430;50.182;11.704;2023-08-31T01:53:03;93994.29;;;16.05;40.59
77366;BME280;66430;50.182;11.704;2023-08-31T01:55:28;93994.46;;;16.01;40.66
77366;BME280;66430;50.182;11.704;2023-08-31T01:57:54;94001.78;;;15.77;41.22
77366;BME280;66430;50.182;11.704;2023-08-31T02:00:20;94004.73;;;15.82;41.39
77366;BME280;66430;50.182;11.704;2023-08-31T02:02:44;94006.65;;;15.61;41.75
77366;BME280;66430;50.182;11.704;2023-08-31T02:05:10;94009.80;;;15.79;41.70
77366;BME280;66430;50.182;11.704;2023-08-31T02:07:36;94010.60;;;15.95;41.39
77366;BME280;66430;50.182;11.704;2023-08-31T02:10:01;94013.23;;;15.68;41.85
77366;BME280;66430;50.182;11.704;2023-08-31T02:12:26;94013.74;;;15.51;41.90
77366;BME280;66430;50.182;11.704;2023-08-31T02:14:52;94016.94;;;15.57;42.36
77366;BME280;66430;50.182;11.704;2023-08-31T02:17:17;94017.39;;;15.84;41.87
77366;BME280;66430;50.182;11.704;2023-08-31T02:19:43;94019.69;;;15.74;42.05
77366;BME280;66430;50.182;11.704;2023-08-31T02:22:09;94015.38;;;15.51;42.15
77366;BME280;66430;50.182;11.704;2023-08-31T02:24:34;94019.96;;;15.83;41.90
77366;BME280;66430;50.182;11.704;2023-08-31T02:26:59;94023.12;;;15.39;42.20
77366;BME280;66430;50.182;11.704;2023-08-31T02:29:24;94024.44;;;15.80;42.06
77366;BME280;66430;50.182;11.704;2023-08-31T02:31:49;94026.80;;;15.92;41.95
77366;BME280;66430;50.182;11.704;2023-08-31T02:34:15;94028.62;;;15.72;41.97
77366;BME280;66430;50.182;11.704;2023-08-31T02:36:40;94031.59;;;15.50;42.13
77366;BME280;66430;50.182;11.704;2023-08-31T02:39:06;94031.53;;;15.66;42.06
77366;BME280;66430;50.182;11.704;2023-08-31T02:41:31;94036.92;;;15.65;41.78
77366;BME280;66430;50.182;11.704;2023-08-31T02:43:57;94039.76;;;15.08;42.55
77366;BME280;66430;50.182;11.704;2023-08-31T02:46:27;94033.84;;;15.51;42.04
77366;BME280;66430;50.182;11.704;2023-08-31T02:48:49;94030.79;;;15.37;42.00
77366;BME280;66430;50.182;11.704;2023-08-31T02:51:14;94029.74;;;15.15;42.19
77366;BME280;66430;50.182;11.704;2023-08-31T02:53:39;94029.15;;;15.52;41.91
77366;BME280;66430;50.182;11.704;2023-08-31T02:56:04;94026.25;;;15.38;41.84
77366;BME280;66430;50.182;11.704;2023-08-31T02:58:29;94027.61;;;15.61;41.96
77366;BME280;66430;50.182;11.704;2023-08-31T03:00:55;94023.34;;;15.69;41.64
77366;BME280;66430;50.182;11.704;2023-08-31T03:03:20;94023.50;;;15.55;41.28
77366;BME280;66430;50.182;11.704;2023-08-31T03:05:46;94025.06;;;14.98;41.93
77366;BME280;66430;50.182;11.704;2023-08-31T03:08:11;94030.73;;;14.96;42.18
77366;BME280;66430;50.182;11.704;2023-08-31T03:10:37;94025.50;;;15.25;41.79
77366;BME280;66430;50.182;11.704;2023-08-31T03:13:02;94025.05;;;15.43;41.56
77366;BME280;66430;50.182;11.704;2023-08-31T03:15:27;94023.79;;;15.36;41.61
77366;BME280;66430;50.182;11.704;2023-08-31T03:17:54;94027.67;;;15.04;42.39
77366;BME280;66430;50.182;11.704;2023-08-31T03:20:18;94021.14;;;15.22;42.10
77366;BME280;66430;50.182;11.704;2023-08-31T03:22:43;94021.84;;;15.20;41.81
77366;BME280;66430;50.182;11.704;2023-08-31T03:25:09;94027.07;;;15.66;41.66
77366;BME280;66430;50.182;11.704;2023-08-31T03:27:34;94029.97;;;15.38;41.51
77366;BME280;66430;50.182;11.704;2023-08-31T03:30:01;94028.00;;;15.07;41.98
77366;BME280;66430;50.182;11.704;2023-08-31T03:32:26;94034.14;;;15.27;41.66
77366;BME280;66430;50.182;11.704;2023-08-31T03:34:50;94040.32;;;15.24;41.69
77366;BME280;66430;50.182;11.704;2023-08-31T03:37:16;94037.14;;;15.33;41.42
77366;BME280;66430;50.182;11.704;2023-08-31T03:39:41;94033.67;;;15.22;41.78
77366;BME280;66430;50.182;11.704;2023-08-31T03:42:06;94035.56;;;15.34;41.93
77366;BME280;66430;50.182;11.704;2023-08-31T03:44:32;94033.02;;;15.34;41.40
77366;BME280;66430;50.182;11.704;2023-08-31T03:46:57;94038.03;;;15.58;41.55
77366;BME280;66430;50.182;11.704;2023-08-31T03:49:23;94045.45;;;15.13;41.60
77366;BME280;66430;50.182;11.704;2023-08-31T03:51:49;94050.35;;;15.55;41.59
77366;BME280;66430;50.182;11.704;2023-08-31T03:54:14;94059.00;;;15.27;42.15
77366;BME280;66430;50.182;11.704;2023-08-31T03:56:39;94065.08;;;15.44;42.00
77366;BME280;66430;50.182;11.704;2023-08-31T03:59:05;94072.96;;;15.63;41.79
77366;BME280;66430;50.182;11.704;2023-08-31T04:01:30;94064.90;;;15.34;41.79
77366;BME280;66430;50.182;11.704;2023-08-31T04:03:55;94063.45;;;15.29;41.93
77366;BME280;66430;50.182;11.704;2023-08-31T04:06:21;94068.20;;;15.53;42.09
77366;BME280;66430;50.182;11.704;2023-08-31T04:08:46;94070.36;;;15.58;42.16
77366;BME280;66430;50.182;11.704;2023-08-31T04:11:12;94073.25;;;15.39;41.72
77366;BME280;66430;50.182;11.704;2023-08-31T04:13:37;94077.79;;;15.34;42.21
77366;BME280;66430;50.182;11.704;2023-08-31T04:16:03;94078.72;;;14.85;42.91
77366;BME280;66430;50.182;11.704;2023-08-31T04:18:28;94082.79;;;15.21;42.24
77366;BME280;66430;50.182;11.704;2023-08-31T04:20:54;94083.28;;;15.16;43.03
77366;BME280;66430;50.182;11.704;2023-08-31T04:23:19;94087.52;;;15.36;42.52
77366;BME280;66430;50.182;11.704;2023-08-31T04:25:47;94087.05;;;15.13;42.50
77366;BME280;66430;50.182;11.704;2023-08-31T04:28:10;94085.76;;;15.18;42.97
77366;BME280;66430;50.182;11.704;2023-08-31T04:30:35;94085.50;;;15.60;42.33
77366;BME280;66430;50.182;11.704;2023-08-31T04:33:01;94078.48;;;15.36;42.77
77366;BME280;66430;50.182;11.704;2023-08-31T04:35:27;94079.32;;;15.34;42.78
77366;BME280;66430;50.182;11.704;2023-08-31T04:37:52;94083.72;;;15.56;42.18
77366;BME280;66430;50.182;11.704;2023-08-31T04:40:17;94087.43;;;14.99;42.56
77366;BME280;66430;50.182;11.704;2023-08-31T04:42:43;94088.44;;;15.04;42.83
77366;BME280;66430;50.182;11.704;2023-08-31T04:45:09;94081.75;;;14.72;43.25
77366;BME280;66430;50.182;11.704;2023-08-31T04:47:34;94090.52;;;15.43;42.53
77366;BME280;66430;50.182;11.704;2023-08-31T04:49:59;94093.94;;;15.07;43.17
77366;BME280;66430;50.182;11.704;2023-08-31T04:52:24;94097.63;;;15.15;43.22
77366;BME280;66430;50.182;11.704;2023-08-31T04:54:49;94099.54;;;15.10;43.39
77366;BME280;66430;50.182;11.704;2023-08-31T04:57:15;94098.50;;;14.90;43.75
77366;BME280;66430;50.182;11.704;2023-08-31T04:59:45;94102.29;;;15.33;43.17
77366;BME280;66430;50.182;11.704;2023-08-31T05:02:06;94107.87;;;15.77;43.03
77366;BME280;66430;50.182;11.704;2023-08-31T05:04:31;94113.82;;;15.63;43.29
77366;BME280;66430;50.182;11.704;2023-08-31T05:06:57;94115.20;;;15.26;42.82
77366;BME280;66430;50.182;11.704;2023-08-31T05:09:24;94120.11;;;14.90;43.59
77366;BME280;66430;50.182;11.704;2023-08-31T05:11:47;94124.34;;;14.99;43.95
77366;BME280;66430;50.182;11.704;2023-08-31T05:14:12;94128.98;;;15.12;43.36
77366;BME280;66430;50.182;11.704;2023-08-31T05:16:38;94134.86;;;15.35;43.12
77366;BME280;66430;50.182;11.704;2023-08-31T05:19:03;94139.21;;;14.96;43.61
77366;BME280;66430;50.182;11.704;2023-08-31T05:21:29;94140.29;;;15.50;42.71
77366;BME280;66430;50.182;11.704;2023-08-31T05:23:54;94141.51;;;16.02;42.45
77366;BME280;66430;50.182;11.704;2023-08-31T05:26:20;94144.20;;;15.71;42.55
77366;BME280;66430;50.182;11.704;2023-08-31T05:28:46;94147.95;;;15.14;43.29
77366;BME280;66430;50.182;11.704;2023-08-31T05:31:11;94149.90;;;15.42;43.25
77366;BME280;66430;50.182;11.704;2023-08-31T05:33:36;94152.09;;;15.44;42.83
77366;BME280;66430;50.182;11.704;2023-08-31T05:36:02;94151.78;;;15.54;42.40
77366;BME280;66430;50.182;11.704;2023-08-31T05:38:27;94154.01;;;15.58;42.59
77366;BME280;66430;50.182;11.704;2023-08-31T05:40:53;94156.34;;;15.68;42.68
77366;BME280;66430;50.182;11.704;2023-08-31T05:43:18;94158.14;;;15.65;42.57
77366;BME280;66430;50.182;11.704;2023-08-31T05:45:43;94156.48;;;15.18;43.53
77366;BME280;66430;50.182;11.704;2023-08-31T05:48:09;94156.12;;;15.64;43.39
77366;BME280;66430;50.182;11.704;2023-08-31T05:50:35;94154.13;;;15.66;42.86
77366;BME280;66430;50.182;11.704;2023-08-31T05:53:00;94153.05;;;15.88;42.71
77366;BME280;66430;50.182;11.704;2023-08-31T05:55:26;94150.10;;;15.38;43.37
77366;BME280;66430;50.182;11.704;2023-08-31T05:57:51;94151.56;;;15.47;43.46
77366;BME280;66430;50.182;11.704;2023-08-31T06:00:17;94154.49;;;15.47;43.15
77366;BME280;66430;50.182;11.704;2023-08-31T06:02:42;94156.74;;;15.51;43.29
77366;BME280;66430;50.182;11.704;2023-08-31T06:05:10;94161.49;;;15.65;43.88
77366;BME280;66430;50.182;11.704;2023-08-31T06:07:33;94160.60;;;15.63;43.73
77366;BME280;66430;50.182;11.704;2023-08-31T06:09:58;94161.13;;;15.56;43.66
77366;BME280;66430;50.182;11.704;2023-08-31T06:12:24;94159.30;;;15.89;43.35
77366;BME280;66430;50.182;11.704;2023-08-31T06:14:49;94163.26;;;15.87;43.68
77366;BME280;66430;50.182;11.704;2023-08-31T06:17:15;94164.18;;;15.63;44.02
77366;BME280;66430;50.182;11.704;2023-08-31T06:19:40;94166.87;;;15.54;43.98
77366;BME280;66430;50.182;11.704;2023-08-31T06:22:05;94169.75;;;15.83;44.97
77366;BME280;66430;50.182;11.704;2023-08-31T06:24:31;94165.64;;;16.05;44.57
77366;BME280;66430;50.182;11.704;2023-08-31T06:26:56;94169.30;;;15.72;43.96
77366;BME280;66430;50.182;11.704;2023-08-31T06:29:22;94172.13;;;15.97;44.22
77366;BME280;66430;50.182;11.704;2023-08-31T06:31:47;94172.09;;;16.25;43.97
77366;BME280;66430;50.182;11.704;2023-08-31T06:34:13;94175.16;;;16.13;43.55
77366;BME280;66430;50.182;11.704;2023-08-31T06:36:39;94180.25;;;16.31;43.79
77366;BME280;66430;50.182;11.704;2023-08-31T06:39:06;94180.90;;;16.53;42.85
77366;BME280;66430;50.182;11.704;2023-08-31T06:41:29;94185.99;;;16.50;43.91
77366;BME280;66430;50.182;11.704;2023-08-31T06:43:55;94191.10;;;16.17;43.29
77366;BME280;66430;50.182;11.704;2023-08-31T06:46:20;94199.17;;;16.02;44.17
77366;BME280;66430;50.182;11.704;2023-08-31T06:48:46;94202.10;;;16.28;43.77
77366;BME280;66430;50.182;11.704;2023-08-31T06:51:11;94202.43;;;16.44;42.99
77366;BME280;66430;50.182;11.704;2023-08-31T06:53:36;94208.27;;;16.04;43.30
77366;BME280;66430;50.182;11.704;2023-08-31T06:56:01;94207.08;;;16.13;43.51
77366;BME280;66430;50.182;11.704;2023-08-31T06:58:26;94204.26;;;16.22;42.92
77366;BME280;66430;50.182;11.704;2023-08-31T07:00:57;94208.43;;;16.42;43.14
77366;BME280;66430;50.182;11.704;2023-08-31T07:03:17;94205.75;;;16.30;43.50
77366;BME280;66430;50.182;11.704;2023-08-31T07:05:43;94210.96;;;16.77;42.75
77366;BME280;66430;50.182;11.704;2023-08-31T07:08:08;94212.51;;;16.25;43.60
77366;BME280;66430;50.182;11.704;2023-08-31T07:10:35;94207.56;;;16.54;42.65
77366;BME280;66430;50.182;11.704;2023-08-31T07:12:59;94206.64;;;16.80;42.55
77366;BME280;66430;50.182;11.704;2023-08-31T07:15:24;94208.93;;;16.45;43.09
77366;BME280;66430;50.182;11.704;2023-08-31T07:17:49;94209.14;;;16.46;44.10
77366;BME280;66430;50.182;11.704;2023-08-31T07:20:15;94214.78;;;16.81;43.09
77366;BME280;66430;50.182;11.704;2023-08-31T07:22:40;94220.20;;;16.68;43.12
77366;BME280;66430;50.182;11.704;2023-08-31T07:25:11;94222.65;;;16.90;42.64
77366;BME280;66430;50.182;11.704;2023-08-31T07:27:35;94227.48;;;17.51;42.97
77366;BME280;66430;50.182;11.704;2023-08-31T07:29:56;94229.37;;;17.62;42.67
77366;BME280;66430;50.182;11.704;2023-08-31T07:32:22;94239.52;;;17.24;42.43
77366;BME280;66430;50.182;11.704;2023-08-31T07:34:47;94242.03;;;17.22;42.48
77366;BME280;66430;50.182;11.704;2023-08-31T07:37:12;94240.93;;;17.23;42.41
77366;BME280;66430;50.182;11.704;2023-08-31T07:39:38;94246.20;;;17.09;41.64
77366;BME280;66430;50.182;11.704;2023-08-31T07:42:05;94247.57;;;16.79;41.94
77366;BME280;66430;50.182;11.704;2023-08-31T07:44:29;94253.50;;;17.03;42.33
77366;BME280;66430;50.182;11.704;2023-08-31T07:46:55;94256.57;;;17.10;41.97
77366;BME280;66430;50.182;11.704;2023-08-31T07:49:20;94260.14;;;17.45;41.22
77366;BME280;66430;50.182;11.704;2023-08-31T07:51:45;94259.42;;;17.35;41.17
77366;BME280;66430;50.182;11.704;2023-08-31T07:54:11;94253.74;;;17.30;41.06
77366;BME280;66430;50.182;11.704;2023-08-31T07:56:37;94259.25;;;17.74;40.59
77366;BME280;66430;50.182;11.704;2023-08-31T07:59:02;94262.24;;;17.47;40.85
77366;BME280;66430;50.182;11.704;2023-08-31T08:01:28;94268.91;;;17.35;40.51
77366;BME280;66430;50.182;11.704;2023-08-31T08:03:53;94266.39;;;17.03;40.81
77366;BME280;66430;50.182;11.704;2023-08-31T08:06:19;94267.22;;;17.34;40.63
77366;BME280;66430;50.182;11.704;2023-08-31T08:08:44;94270.61;;;17.18;40.89
77366;BME280;66430;50.182;11.704;2023-08-31T08:11:09;94268.77;;;17.11;40.86
77366;BME280;66430;50.182;11.704;2023-08-31T08:13:35;94272.62;;;17.62;41.02
77366;BME280;66430;50.182;11.704;2023-08-31T08:16:00;94274.50;;;17.71;41.43
77366;BME280;66430;50.182;11.704;2023-08-31T08:18:25;94275.63;;;17.86;41.13
77366;BME280;66430;50.182;11.704;2023-08-31T08:20:51;94278.20;;;17.72;41.26
77366;BME280;66430;50.182;11.704;2023-08-31T08:23:16;94279.01;;;18.01;41.60
77366;BME280;66430;50.182;11.704;2023-08-31T08:25:41;94277.12;;;17.99;41.21
77366;BME280;66430;50.182;11.704;2023-08-31T08:28:07;94287.07;;;17.97;42.01
77366;BME280;66430;50.182;11.704;2023-08-31T08:30:31;94287.78;;;18.25;40.57
77366;BME280;66430;50.182;11.704;2023-08-31T08:32:57;94293.79;;;18.31;40.97
77366;BME280;66430;50.182;11.704;2023-08-31T08:35:22;94293.91;;;17.80;40.68
77366;BME280;66430;50.182;11.704;2023-08-31T08:37:48;94296.32;;;18.47;39.92
77366;BME280;66430;50.182;11.704;2023-08-31T08:40:13;94296.37;;;18.04;39.10
77366;BME280;66430;50.182;11.704;2023-08-31T08:42:40;94296.82;;;18.36;39.01
77366;BME280;66430;50.182;11.704;2023-08-31T08:45:06;94298.57;;;17.99;39.87
77366;BME280;66430;50.182;11.704;2023-08-31T08:47:30;94300.91;;;18.14;38.98
77366;BME280;66430;50.182;11.704;2023-08-31T08:49:58;94300.43;;;18.29;38.92
77366;BME280;66430;50.182;11.704;2023-08-31T08:52:21;94301.37;;;18.10;39.43
77366;BME280;66430;50.182;11.704;2023-08-31T08:54:46;94299.14;;;17.74;40.39
77366;BME280;66430;50.182;11.704;2023-08-31T08:57:10;94307.32;;;18.23;40.12
77366;BME280;66430;50.182;11.704;2023-08-31T08:59:36;94303.55;;;18.75;39.38
77366;BME280;66430;50.182;11.704;2023-08-31T09:02:02;94304.48;;;18.39;39.28
77366;BME280;66430;50.182;11.704;2023-08-31T09:04:29;94303.48;;;18.36;38.97
77366;BME280;66430;50.182;11.704;2023-08-31T09:06:53;94304.88;;;18.20;38.79
77366;BME280;66430;50.182;11.704;2023-08-31T09:09:18;94309.03;;;18.19;38.54
77366;BME280;66430;50.182;11.704;2023-08-31T09:11:44;94313.01;;;18.42;39.49
77366;BME280;66430;50.182;11.704;2023-08-31T09:14:15;94312.65;;;18.73;39.59
77366;BME280;66430;50.182;11.704;2023-08-31T09:16:35;94314.16;;;18.62;38.85
77366;BME280;66430;50.182;11.704;2023-08-31T09:18:59;94312.00;;;17.92;39.92
77366;BME280;66430;50.182;11.704;2023-08-31T09:21:35;94314.94;;;18.51;38.54
77366;BME280;66430;50.182;11.704;2023-08-31T09:23:56;94316.65;;;17.65;39.24
77366;BME280;66430;50.182;11.704;2023-08-31T09:26:18;94317.40;;;18.21;38.01
77366;BME280;66430;50.182;11.704;2023-08-31T09:28:43;94319.09;;;17.98;38.67
77366;BME280;66430;50.182;11.704;2023-08-31T09:31:07;94319.15;;;17.98;38.25
77366;BME280;66430;50.182;11.704;2023-08-31T09:33:31;94321.03;;;17.71;38.79
77366;BME280;66430;50.182;11.704;2023-08-31T09:35:58;94319.09;;;17.59;38.90
77366;BME280;66430;50.182;11.704;2023-08-31T09:38:22;94321.12;;;17.71;38.61
77366;BME280;66430;50.182;11.704;2023-08-31T09:40:47;94322.13;;;17.73;38.56
77366;BME280;66430;50.182;11.704;2023-08-31T09:45:38;94324.13;;;17.78;38.82
77366;BME280;66430;50.182;11.704;2023-08-31T09:48:04;94317.22;;;18.41;38.54
77366;BME280;66430;50.182;11.704;2023-08-31T09:50:29;94317.92;;;18.26;37.76
77366;BME280;66430;50.182;11.704;2023-08-31T09:52:55;94316.80;;;18.34;37.16
77366;BME280;66430;50.182;11.704;2023-08-31T09:55:20;94327.29;;;17.75;37.41
77366;BME280;66430;50.182;11.704;2023-08-31T09:57:45;94328.06;;;17.59;38.05
77366;BME280;66430;50.182;11.704;2023-08-31T10:00:11;94323.22;;;18.11;37.41
77366;BME280;66430;50.182;11.704;2023-08-31T10:02:37;94328.68;;;18.06;37.08
77366;BME280;66430;50.182;11.704;2023-08-31T10:05:01;94335.75;;;17.87;38.59
77366;BME280;66430;50.182;11.704;2023-08-31T10:07:27;94338.16;;;17.80;38.29
77366;BME280;66430;50.182;11.704;2023-08-31T10:09:52;94330.47;;;17.71;37.71
77366;BME280;66430;50.182;11.704;2023-08-31T10:12:17;94328.63;;;18.20;38.74
77366;BME280;66430;50.182;11.704;2023-08-31T10:14:47;94325.10;;;18.57;38.32
77366;BME280;66430;50.182;11.704;2023-08-31T10:17:08;94330.81;;;18.31;39.08
77366;BME280;66430;50.182;11.704;2023-08-31T10:19:33;94336.75;;;18.16;37.28
77366;BME280;66430;50.182;11.704;2023-08-31T10:21:58;94323.79;;;18.51;35.78
77366;BME280;66430;50.182;11.704;2023-08-31T10:26:49;94331.85;;;17.69;35.47
77366;BME280;66430;50.182;11.704;2023-08-31T10:29:25;94336.45;;;17.97;35.73
77366;BME280;66430;50.182;11.704;2023-08-31T10:31:40;94340.94;;;18.02;36.00
77366;BME280;66430;50.182;11.704;2023-08-31T10:34:06;94335.26;;;18.08;35.88
77366;BME280;66430;50.182;11.704;2023-08-31T10:36:38;94335.50;;;17.96;36.46
77366;BME280;66430;50.182;11.704;2023-08-31T10:39:01;94332.90;;;18.56;35.67
77366;BME280;66430;50.182;11.704;2023-08-31T10:41:22;94335.21;;;18.57;35.56
77366;BME280;66430;50.182;11.704;2023-08-31T10:43:49;94334.29;;;18.57;36.36
77366;BME280;66430;50.182;11.704;2023-08-31T10:46:16;94332.70;;;18.49;36.08
77366;BME280;66430;50.182;11.704;2023-08-31T10:51:03;94330.36;;;18.69;34.69
77366;BME280;66430;50.182;11.704;2023-08-31T10:53:29;94324.85;;;19.79;34.25
77366;BME280;66430;50.182;11.704;2023-08-31T10:55:55;94329.25;;;19.51;34.59
77366;BME280;66430;50.182;11.704;2023-08-31T10:58:19;94322.35;;;18.92;32.32
77366;BME280;66430;50.182;11.704;2023-08-31T11:00:51;94324.81;;;19.56;32.09
77366;BME280;66430;50.182;11.704;2023-08-31T11:03:12;94316.07;;;19.24;32.60
77366;BME280;66430;50.182;11.704;2023-08-31T11:05:51;94320.63;;;19.27;32.96
77366;BME280;66430;50.182;11.704;2023-08-31T11:08:00;94321.97;;;19.31;33.27
77366;BME280;66430;50.182;11.704;2023-08-31T11:10:26;94321.30;;;19.32;32.58
77366;BME280;66430;50.182;11.704;2023-08-31T11:12:52;94324.95;;;19.15;31.95
77366;BME280;66430;50.182;11.704;2023-08-31T11:15:18;94326.24;;;18.91;31.36
77366;BME280;66430;50.182;11.704;2023-08-31T11:17:43;94327.39;;;19.24;31.70
77366;BME280;66430;50.182;11.704;2023-08-31T11:20:09;94327.16;;;19.27;32.01
77366;BME280;66430;50.182;11.704;2023-08-31T11:22:33;94330.16;;;19.32;33.05
77366;BME280;66430;50.182;11.704;2023-08-31T11:24:59;94326.53;;;19.35;32.86
77366;BME280;66430;50.182;11.704;2023-08-31T11:27:25;94323.55;;;19.27;33.96
77366;BME280;66430;50.182;11.704;2023-08-31T11:29:49;94317.01;;;19.60;33.64
77366;BME280;66430;50.182;11.704;2023-08-31T11:32:15;94327.28;;;19.29;32.81
77366;BME280;66430;50.182;11.704;2023-08-31T11:34:41;94325.06;;;19.86;32.84
77366;BME280;66430;50.182;11.704;2023-08-31T11:37:05;94323.37;;;19.58;32.24
77366;BME280;66430;50.182;11.704;2023-08-31T11:39:31;94319.08;;;19.96;32.96
77366;BME280;66430;50.182;11.704;2023-08-31T11:41:56;94318.45;;;20.07;32.75
77366;BME280;66430;50.182;11.704;2023-08-31T11:44:21;94325.18;;;20.05;33.87
77366;BME280;66430;50.182;11.704;2023-08-31T11:46:47;94328.13;;;19.90;33.55
77366;BME280;66430;50.182;11.704;2023-08-31T11:49:12;94314.34;;;20.00;32.80
77366;BME280;66430;50.182;11.704;2023-08-31T11:51:39;94313.02;;;19.79;31.59
77366;BME280;66430;50.182;11.704;2023-08-31T11:54:03;94311.78;;;19.92;33.15
77366;BME280;66430;50.182;11.704;2023-08-31T11:58:53;94308.04;;;20.42;31.65
77366;BME280;66430;50.182;11.704;2023-08-31T12:01:20;94315.01;;;20.49;30.38
77366;BME280;66430;50.182;11.704;2023-08-31T12:03:44;94315.74;;;20.72;30.13
77366;BME280;66430;50.182;11.704;2023-08-31T12:06:09;94315.78;;;20.46;31.63
77366;BME280;66430;50.182;11.704;2023-08-31T12:08:37;94317.95;;;20.35;31.02
77366;BME280;66430;50.182;11.704;2023-08-31T12:11:00;94320.73;;;20.41;31.22
77366;BME280;66430;50.182;11.704;2023-08-31T12:13:27;94328.70;;;19.64;30.41
77366;BME280;66430;50.182;11.704;2023-08-31T12:15:53;94326.62;;;19.70;31.28
77366;BME280;66430;50.182;11.704;2023-08-31T12:18:16;94323.67;;;19.79;30.91
77366;BME280;66430;50.182;11.704;2023-08-31T12:20:50;94328.98;;;20.26;30.02
77366;BME280;66430;50.182;11.704;2023-08-31T12:23:07;94335.80;;;19.54;31.20
77366;BME280;66430;50.182;11.704;2023-08-31T12:25:32;94332.65;;;19.76;30.69
77366;BME280;66430;50.182;11.704;2023-08-31T12:27:57;94337.56;;;19.84;30.92
77366;BME280;66430;50.182;11.704;2023-08-31T12:30:23;94335.13;;;19.97;31.78
77366;BME280;66430;50.182;11.704;2023-08-31T12:32:48;94339.03;;;20.21;31.78
77366;BME280;66430;50.182;11.704;2023-08-31T12:35:13;94341.98;;;19.75;31.83
77366;BME280;66430;50.182;11.704;2023-08-31T12:37:43;94343.14;;;19.77;31.12
77366;BME280;66430;50.182;11.704;2023-08-31T12:40:05;94350.72;;;19.96;32.20
77366;BME280;66430;50.182;11.704;2023-08-31T12:42:29;94349.29;;;20.58;33.29
77366;BME280;66430;50.182;11.704;2023-08-31T12:45:00;94345.45;;;20.43;33.62
77366;BME280;66430;50.182;11.704;2023-08-31T12:47:20;94347.61;;;20.35;33.33
77366;BME280;66430;50.182;11.704;2023-08-31T12:49:45;94346.07;;;20.45;32.37